Flight Track Log - Related Links

Times and Time Zones

All times are in EDT time to prevent confusion due to time zone crossing. See the VRD204 flight status page for this flight to view local times or setup timezone preferences in your user account.

Time Position Orientation Groundspeed Altitude Reporting Facility
EDT Latitude Longitude Course Direction KTS MPH feet Rate Location/Type
Wed 04:24:06 PM 37.6667 -122.3333 50° Northeast 174 200 2,200  Level Northern Cal TRACON
Wed 04:25:06 PM 37.7000 -122.2833 47° Northeast 195 224 3,700 1,550 Climbing Northern Cal TRACON
Wed 04:26:06 PM 37.7500 -122.2167 46° Northeast 299 344 5,300 2,200 Climbing Northern Cal TRACON
Wed 04:27:06 PM 37.8000 -122.1500 48° Northeast 287 330 8,100 2,051 Climbing Northern Cal TRACON
Wed 04:29:22 PM 37.9319 -121.9636 48° Northeast 321 369 12,000 1,837 Climbing Oakland Center
Wed 04:30:22 PM 37.9994 -121.8697 49° Northeast 339 390 14,100 2,150 Climbing Oakland Center
Wed 04:31:22 PM 38.0669 -121.7703 48° Northeast 351 404 16,300 2,000 Climbing Oakland Center
Wed 04:32:22 PM 38.1383 -121.6681 48° Northeast 370 426 18,100 1,850 Climbing Oakland Center
Wed 04:33:22 PM 38.2119 -121.5628 48° Northeast 383 441 20,000 1,800 Climbing Oakland Center
Wed 04:34:22 PM 38.2897 -121.4525 50° Northeast 399 459 21,700 1,700 Climbing Oakland Center
Wed 04:35:22 PM 38.3650 -121.3389 50° Northeast 411 473 23,400 1,438 Climbing Oakland Center
Wed 04:36:23 PM 38.4467 -121.2147 54° Northeast 439 505 24,600 1,339 Climbing Oakland Center
Wed 04:37:23 PM 38.5303 -121.0664 51° Northeast 462 532 26,100 1,361 Climbing Oakland Center
Wed 04:38:22 PM 38.6097 -120.9417 51° Northeast 462 532 27,300 1,210 Climbing Oakland Center
Wed 04:39:22 PM 38.6908 -120.8139 51° Northeast 462 532 28,500 1,100 Climbing Oakland Center
Wed 04:40:22 PM 38.7719 -120.6831 52° Northeast 462 532 29,500 1,150 Climbing Oakland Center
Wed 04:41:22 PM 38.8528 -120.5494 51° Northeast 468 539 30,800 1,250 Climbing Oakland Center
Wed 04:42:22 PM 38.9358 -120.4156 51° Northeast 468 539 32,000 1,150 Climbing Oakland Center
Wed 04:43:22 PM 39.0164 -120.2867 53° Northeast 468 539 33,100 1,000 Climbing Oakland Center
Wed 04:44:22 PM 39.0947 -120.1519 55° Northeast 468 539 34,000 900 Climbing Oakland Center
Wed 04:45:22 PM 39.1564 -120.0389 52° Northeast 450 518 34,900 500 Climbing Oakland Center
Wed 04:46:22 PM 39.2347 -119.9092 52° Northeast 450 518 35,000 50 Climbing Oakland Center
Wed 04:47:22 PM 39.3147 -119.7764 53° Northeast 455 524 35,000 50 Level Oakland Center
Wed 04:48:22 PM 39.3925 -119.6436 52° Northeast 460 529 35,100 50 Climbing Oakland Center
Wed 04:49:22 PM 39.4703 -119.5128 53° Northeast 460 529 35,100 -50 Level Oakland Center
Wed 04:50:23 PM 39.5497 -119.3767 53° Northeast 460 529 35,000 -50 Descending Oakland Center
Wed 04:51:22 PM 39.6250 -119.2456 64° Northeast 460 529 35,000  Level Oakland Center
Wed 04:52:22 PM 39.6811 -119.0931 65° Northeast 460 529 35,000  Level Oakland Center
Wed 04:53:22 PM 39.7350 -118.9431 66° East 455 524 35,000  Level Oakland Center
Wed 04:54:22 PM 39.7925 -118.7767 66° East 455 524 35,000  Level Oakland Center
Wed 04:55:22 PM 39.8436 -118.6264 66° East 450 518 35,000  Level Oakland Center
Wed 04:57:17 PM 39.9350 -118.3578 66° East 456 525 35,000  Level Salt Lake Center
Wed 04:58:19 PM 39.9869 -118.2053 66° East 458 527 35,000  Level Salt Lake Center
Wed 04:59:20 PM 40.0486 -118.0231 66° East 457 526 35,000  Level Salt Lake Center
Wed 05:00:22 PM 40.0953 -117.8828 66° East 456 525 35,000  Level Salt Lake Center
Wed 05:01:24 PM 40.1525 -117.7122 66° East 458 527 35,000  Level Salt Lake Center
Wed 05:02:26 PM 40.2011 -117.5664 66° East 458 527 35,000  Level Salt Lake Center
Wed 05:03:28 PM 40.2497 -117.4217 66° East 456 525 35,000  Level Salt Lake Center
Wed 05:04:30 PM 40.3064 -117.2517 67° East 456 525 35,000  Level Salt Lake Center
Wed 05:05:31 PM 40.3461 -117.1308 66° East 455 524 35,000  Level Salt Lake Center
Wed 05:06:34 PM 40.4125 -116.9306 67° East 455 524 35,000  Level Salt Lake Center
Wed 05:07:36 PM 40.4608 -116.7789 67° East 455 524 35,000  Level Salt Lake Center
Wed 05:08:38 PM 40.5089 -116.6303 67° East 458 527 35,000  Level Salt Lake Center
Wed 05:09:39 PM 40.5631 -116.4583 67° East 457 526 35,000  Level Salt Lake Center
Wed 05:10:41 PM 40.6108 -116.3103 67° East 458 527 35,000  Level Salt Lake Center
Wed 05:11:43 PM 40.6661 -116.1375 67° East 459 528 35,000  Level Salt Lake Center
Wed 05:12:45 PM 40.7142 -115.9892 67° East 460 529 35,000  Level Salt Lake Center
Wed 05:13:47 PM 40.7608 -115.8417 68° East 457 526 35,000  Level Salt Lake Center
Wed 05:14:49 PM 40.8131 -115.6694 67° East 454 522 35,000  Level Salt Lake Center
Wed 05:15:51 PM 40.8597 -115.5217 67° East 455 524 35,000  Level Salt Lake Center
Wed 05:16:53 PM 40.9136 -115.3494 68° East 455 524 35,000  Level Salt Lake Center
Wed 05:17:55 PM 40.9581 -115.2008 69° East 454 522 35,000  Level Salt Lake Center
Wed 05:18:57 PM 41.0069 -115.0272 67° East 452 520 35,000  Level Salt Lake Center
Wed 05:19:59 PM 41.0553 -114.8783 68° East 456 525 35,000  Level Salt Lake Center
Wed 05:21:01 PM 41.1033 -114.7225 68° East 455 524 35,000  Level Salt Lake Center
Wed 05:22:03 PM 41.1583 -114.5397 68° East 454 522 35,000  Level Salt Lake Center
Wed 05:23:05 PM 41.2053 -114.3842 70° East 452 520 35,000  Level Salt Lake Center
Wed 05:24:07 PM 41.2489 -114.2275 69° East 450 518 35,000  Level Salt Lake Center
Wed 05:25:09 PM 41.2942 -114.0733 68° East 446 513 35,000  Level Salt Lake Center
Wed 05:26:11 PM 41.3400 -113.9192 74° East 445 512 35,000  Level Salt Lake Center
Wed 05:27:14 PM 41.3747 -113.7586 80° East 449 517 35,000  Level Salt Lake Center
Wed 05:28:16 PM 41.3953 -113.5944 81° East 447 514 35,000  Level Salt Lake Center
Wed 05:29:18 PM 41.4169 -113.4039 80° East 443 510 35,000  Level Salt Lake Center
Wed 05:30:20 PM 41.4375 -113.2411 80° East 442 509 35,000  Level Salt Lake Center
Wed 05:31:22 PM 41.4594 -113.0783 81° East 442 509 35,000  Level Salt Lake Center
Wed 05:32:25 PM 41.4792 -112.9156 81° East 442 509 35,000  Level Salt Lake Center
Wed 05:33:27 PM 41.4983 -112.7525 81° East 441 507 35,000  Level Salt Lake Center
Wed 05:34:29 PM 41.5175 -112.5878 80° East 444 511 35,000  Level Salt Lake Center
Wed 05:35:43 PM 41.5381 -112.4231 82° East 445 512 35,000  Level Salt Lake Center
Wed 05:36:46 PM 41.5603 -112.2036 82° East 442 509 35,000  Level Salt Lake Center
Wed 05:37:48 PM 41.5772 -112.0392 82° East 442 509 35,000  Level Salt Lake Center
Wed 05:38:50 PM 41.5936 -111.8753 82° East 440 506 35,000  Level Salt Lake Center
Wed 05:39:52 PM 41.6103 -111.7108 82° East 441 507 35,000  Level Salt Lake Center
Wed 05:40:54 PM 41.6272 -111.5461 83° East 441 507 35,000  Level Salt Lake Center
Wed 05:41:56 PM 41.6431 -111.3822 82° East 440 506 35,000  Level Salt Lake Center
Wed 05:42:58 PM 41.6592 -111.2183 82° East 440 506 35,000  Level Salt Lake Center
Wed 05:44:00 PM 41.6781 -111.0278 83° East 439 505 35,000  Level Salt Lake Center
Wed 05:45:03 PM 41.6928 -110.8708 83° East 440 506 35,000  Level Salt Lake Center
Wed 05:46:05 PM 41.7083 -110.6911 83° East 438 504 35,000  Level Salt Lake Center
Wed 05:47:07 PM 41.7228 -110.5375 83° East 436 502 35,000  Level Salt Lake Center
Wed 05:48:09 PM 41.7364 -110.3831 83° East 437 503 35,000  Level Salt Lake Center
Wed 05:49:11 PM 41.7519 -110.2028 83° East 436 502 35,000  Level Salt Lake Center
Wed 05:50:13 PM 41.7650 -110.0481 83° East 436 502 35,000  Level Salt Lake Center
Wed 05:51:15 PM 41.7803 -109.8681 83° East 436 502 35,000  Level Salt Lake Center
Wed 05:52:17 PM 41.7933 -109.7133 84° East 436 502 35,000  Level Salt Lake Center
Wed 05:53:19 PM 41.8081 -109.5319 84° East 437 503 35,000  Level Salt Lake Center
Wed 05:54:21 PM 41.8206 -109.3761 84° East 437 503 35,000  Level Salt Lake Center
Wed 05:55:23 PM 41.8347 -109.1931 84° East 439 505 35,000  Level Salt Lake Center
Wed 05:56:25 PM 41.8461 -109.0367 84° East 438 504 35,000  Level Salt Lake Center
Wed 05:57:28 PM 41.8581 -108.8797 84° East 439 505 35,000  Level Salt Lake Center
Wed 05:58:30 PM 41.8717 -108.6967 85° East 439 505 35,000  Level Salt Lake Center
Wed 05:59:32 PM 41.8825 -108.5403 85° East 439 505 35,000  Level Salt Lake Center
Wed 06:00:35 PM 41.8950 -108.3597 84° East 436 502 35,000  Level Salt Lake Center
Wed 06:01:36 PM 41.9064 -108.2050 85° East 436 502 35,000  Level Salt Lake Center
Wed 06:02:38 PM 41.9181 -108.0231 85° East 438 504 35,000  Level Salt Lake Center
Wed 06:03:40 PM 41.9283 -107.8658 85° East 441 507 35,000  Level Salt Lake Center
Wed 06:04:42 PM 41.9397 -107.6861 85° East 435 501 35,000  Level Salt Lake Center
Wed 06:05:44 PM 41.9492 -107.5314 85° East 434 499 35,000  Level Salt Lake Center
Wed 06:06:46 PM 41.9606 -107.3517 85° East 433 498 35,000  Level Salt Lake Center
Wed 06:07:48 PM 41.9706 -107.1967 85° East 434 499 35,000  Level Salt Lake Center
Wed 06:08:50 PM 41.9814 -107.0153 86° East 436 502 35,000  Level Salt Lake Center
Wed 06:09:52 PM 41.9900 -106.8597 86° East 436 502 35,000  Level Salt Lake Center
Wed 06:10:54 PM 41.9983 -106.7058 88° East 434 499 35,000  Level Salt Lake Center
Wed 06:11:49 PM 42.0014 -106.5544 82° East 436 502 35,000  Level Denver Center
Wed 06:12:49 PM 42.0181 -106.3953 86° East 425 489 35,000  Level Denver Center
Wed 06:13:49 PM 42.0264 -106.2331 86° East 425 489 35,000  Level Denver Center
Wed 06:14:49 PM 42.0364 -106.0569 86° East 425 489 35,000  Level Denver Center
Wed 06:15:49 PM 42.0439 -105.8947 87° East 425 489 35,000  Level Denver Center
Wed 06:16:49 PM 42.0494 -105.7467 87° East 425 489 35,000  Level Denver Center
Wed 06:17:49 PM 42.0564 -105.5703 87° East 430 495 35,000  Level Denver Center
Wed 06:18:49 PM 42.0633 -105.4081 86° East 430 495 35,000  Level Denver Center
Wed 06:20:32 PM 42.0786 -105.1180 83° East 436 502 35,000  Level FlightAware ADS-B
Wed 06:21:02 PM 42.0858 -105.0380 83° East 435 501 35,000  Level FlightAware ADS-B
Wed 06:21:33 PM 42.0933 -104.9550 83° East 435 501 35,000  Level FlightAware ADS-B
Wed 06:22:04 PM 42.1006 -104.8720 83° East 435 501 35,000  Level FlightAware ADS-B
Wed 06:22:34 PM 42.1075 -104.7920 83° East 435 501 35,000  Level FlightAware ADS-B
Wed 06:23:05 PM 42.1146 -104.7100 84° East 434 499 35,000  Level FlightAware ADS-B
Wed 06:23:39 PM 42.1225 -104.6160 83° East 436 502 35,000  Level FlightAware ADS-B
Wed 06:24:09 PM 42.1293 -104.5370 84° East 436 502 35,000  Level FlightAware ADS-B
Wed 06:24:40 PM 42.1362 -104.4540 84° East 437 503 35,000  Level FlightAware ADS-B
Wed 06:25:11 PM 42.1433 -104.3690 84° East 439 505 35,000  Level FlightAware ADS-B
Wed 06:25:41 PM 42.1501 -104.2860 84° East 439 505 35,000  Level FlightAware ADS-B
Wed 06:26:11 PM 42.1567 -104.2060 84° East 438 504 35,000  Level FlightAware ADS-B
Wed 06:26:48 PM 42.1647 -104.1070 84° East 437 503 35,000  Level FlightAware ADS-B
Wed 06:27:20 PM 42.1718 -104.0200 84° East 435 501 35,000  Level FlightAware ADS-B
Wed 06:27:50 PM 42.1780 -103.9410 81° East 434 499 35,000  Level FlightAware ADS-B
Wed 06:28:20 PM 42.1879 -103.8600 79° East 434 499 35,000  Level FlightAware ADS-B
Wed 06:28:51 PM 42.2000 -103.7780 79° East 433 498 35,000  Level FlightAware ADS-B
Wed 06:29:22 PM 42.2112 -103.6970 80° East 433 498 35,000  Level FlightAware ADS-B
Wed 06:29:52 PM 42.2216 -103.6180 80° East 433 498 35,000  Level FlightAware ADS-B
Wed 06:30:24 PM 42.2329 -103.5330 80° East 434 499 35,000  Level FlightAware ADS-B
Wed 06:30:55 PM 42.2438 -103.4490 80° East 436 502 35,000  Level FlightAware ADS-B
Wed 06:31:26 PM 42.2543 -103.3690 80° East 436 502 35,000  Level FlightAware ADS-B
Wed 06:31:56 PM 42.2649 -103.2860 80° East 437 503 35,000  Level FlightAware ADS-B
Wed 06:32:27 PM 42.2754 -103.2040 80° East 437 503 35,000  Level FlightAware ADS-B
Wed 06:33:07 PM 42.2889 -103.0980 80° East 437 503 35,000  Level FlightAware ADS-B
Wed 06:33:41 PM 42.3009 -103.0040 80° East 435 501 35,000  Level FlightAware ADS-B
Wed 06:34:21 PM 42.3142 -102.8980 80° East 435 501 35,000  Level FlightAware ADS-B
Wed 06:34:51 PM 42.3242 -102.8170 81° East 435 501 35,000  Level FlightAware ADS-B
Wed 06:35:22 PM 42.3343 -102.7350 81° East 437 503 35,000  Level FlightAware ADS-B
Wed 06:36:03 PM 42.3479 -102.6240 81° East 439 505 35,000 59 Level FlightAware ADS-B
Wed 06:37:04 PM 42.3678 -102.4610 82° East 441 507 35,100  Climbing FlightAware ADS-B
Wed 06:37:49 PM 42.3808 -102.3419 81° East 431 496 35,000 -57 Descending Denver Center
Wed 06:38:49 PM 42.3983 -102.1972 80° East 431 496 35,000  Level Denver Center
Wed 06:39:49 PM 42.4208 -102.0186 82° East 436 502 35,000  Level Denver Center
Wed 06:40:49 PM 42.4375 -101.8569 81° East 436 502 35,000  Level Denver Center
Wed 06:41:49 PM 42.4531 -101.7208 82° East 416 479 35,000  Level Denver Center
Wed 06:42:49 PM 42.4725 -101.5419 80° East 430 495 35,000  Level Denver Center
Wed 06:43:49 PM 42.4928 -101.3797 82° East 430 495 35,000  Level Denver Center
Wed 06:44:49 PM 42.5086 -101.2178 81° East 430 495 35,000  Level Denver Center
Wed 06:45:49 PM 42.5267 -101.0669 81° East 430 495 35,000  Level Denver Center
Wed 06:46:49 PM 42.5472 -100.8875 83° East 436 502 35,000  Level Denver Center
Wed 06:47:49 PM 42.5625 -100.7256 82° East 435 501 35,000  Level Denver Center
Wed 06:50:06 PM 42.6008 -100.3514 81° East 432 497 35,000  Level Minneapolis Center
Wed 06:51:06 PM 42.6194 -100.1842 82° East 437 503 35,000  Level Minneapolis Center
Wed 06:52:06 PM 42.6356 -100.0222 83° East 437 503 35,000  Level Minneapolis Center
Wed 06:53:06 PM 42.6514 -99.8572 82° East 438 504 35,000  Level Minneapolis Center
Wed 06:54:06 PM 42.6692 -99.6925 84° East 443 510 35,000  Level Minneapolis Center
Wed 06:55:06 PM 42.6825 -99.5300 82° East 438 504 35,000  Level Minneapolis Center
Wed 06:56:06 PM 42.7000 -99.3650 83° East 443 510 35,000  Level Minneapolis Center
Wed 06:57:05 PM 42.7150 -99.1969 83° East 443 510 35,000  Level Minneapolis Center
Wed 06:58:05 PM 42.7297 -99.0317 83° East 443 510 35,000  Level Minneapolis Center
Wed 06:59:06 PM 42.7444 -98.8661 82° East 443 510 35,000  Level Minneapolis Center
Wed 07:00:05 PM 42.7608 -98.6981 83° East 443 510 35,000 101 Level Minneapolis Center
Wed 07:01:05 PM 42.7747 -98.5325 83° East 438 504 35,200 350 Climbing Minneapolis Center
Wed 07:02:05 PM 42.7886 -98.3667 86° East 443 510 35,700 496 Climbing Minneapolis Center
Wed 07:03:06 PM 42.7983 -98.1892 82° East 443 510 36,200 500 Climbing Minneapolis Center
Wed 07:04:05 PM 42.8158 -98.0264 85° East 449 517 36,700 403 Climbing Minneapolis Center
Wed 07:05:05 PM 42.8267 -97.8575 84° East 449 517 37,000 149 Climbing Minneapolis Center
Wed 07:06:06 PM 42.8394 -97.6942 83° East 438 504 37,000  Level Minneapolis Center
Wed 07:07:06 PM 42.8542 -97.5283 85° East 443 510 37,000  Level Minneapolis Center
Wed 07:08:06 PM 42.8644 -97.3533 84° East 443 510 37,000  Level Minneapolis Center
Wed 07:09:06 PM 42.8764 -97.1900 84° East 443 510 37,000  Level Minneapolis Center
Wed 07:10:06 PM 42.8878 -97.0406 84° East 443 510 37,000  Level Minneapolis Center
Wed 07:11:05 PM 42.9011 -96.8769 85° East 443 510 37,000  Level Minneapolis Center
Wed 07:12:05 PM 42.9125 -96.7106 85° East 443 510 37,000  Level Minneapolis Center
Wed 07:13:05 PM 42.9236 -96.5411 85° East 438 504 37,000  Level Minneapolis Center
Wed 07:14:05 PM 42.9344 -96.3744 85° East 438 504 37,000  Level Minneapolis Center
Wed 07:15:06 PM 42.9450 -96.2106 84° East 443 510 37,000  Level Minneapolis Center
Wed 07:16:05 PM 42.9575 -96.0411 85° East 443 510 37,000  Level Minneapolis Center
Wed 07:17:05 PM 42.9675 -95.8714 86° East 443 510 37,000  Level Minneapolis Center
Wed 07:18:06 PM 42.9775 -95.6903 86° East 443 510 37,000  Level Minneapolis Center
Wed 07:19:05 PM 42.9869 -95.5233 85° East 443 510 37,000  Level Minneapolis Center
Wed 07:20:05 PM 42.9983 -95.3592 86° East 443 510 37,000  Level Minneapolis Center
Wed 07:21:06 PM 43.0075 -95.1919 86° East 443 510 37,000  Level Minneapolis Center
Wed 07:22:06 PM 43.0161 -95.0219 86° East 443 510 37,000  Level Minneapolis Center
Wed 07:23:05 PM 43.0247 -94.8578 85° East 438 504 37,000  Level Minneapolis Center
Wed 07:24:06 PM 43.0350 -94.6906 86° East 443 510 37,000  Level Minneapolis Center
Wed 07:25:06 PM 43.0428 -94.5431 87° East 443 510 37,000  Level Minneapolis Center
Wed 07:26:05 PM 43.0486 -94.3728 88° East 443 510 37,000  Level Minneapolis Center
Wed 07:27:05 PM 43.0519 -94.1939 92° East 437 503 37,000  Level Minneapolis Center
Wed 07:28:05 PM 43.0467 -94.0264 92° East 437 503 37,000  Level Minneapolis Center
Wed 07:29:05 PM 43.0433 -93.8589 91° East 442 509 37,000  Level Minneapolis Center
Wed 07:30:05 PM 43.0419 -93.6886 93° East 440 506 37,000  Level Minneapolis Center
Wed 07:31:05 PM 43.0358 -93.5242 92° East 442 509 37,000  Level Minneapolis Center
Wed 07:32:05 PM 43.0317 -93.3708 92° East 442 509 37,000  Level Minneapolis Center
Wed 07:33:05 PM 43.0272 -93.2033 93° East 442 509 37,000  Level Minneapolis Center
Wed 07:34:06 PM 43.0206 -93.0361 91° East 442 509 37,000  Level Minneapolis Center
Wed 07:35:06 PM 43.0178 -92.8658 93° East 442 509 37,000  Level Minneapolis Center
Wed 07:36:05 PM 43.0106 -92.7014 91° East 442 509 37,000  Level Minneapolis Center
Wed 07:37:05 PM 43.0072 -92.5311 93° East 442 509 37,000  Level Minneapolis Center
Wed 07:38:44 PM 42.9956 -92.2539 94° East 433 498 37,000  Level Chicago Center
Wed 07:39:44 PM 42.9872 -92.0858 92° East 433 498 37,000 -250 Level Chicago Center
Wed 07:40:44 PM 42.9828 -91.9183 93° East 440 506 36,500 -1,200 Descending Chicago Center
Wed 07:41:44 PM 42.9758 -91.7478 92° East 440 506 34,600 -2,450 Descending Chicago Center
Wed 07:42:44 PM 42.9711 -91.5744 100° East 445 512 31,600 -1,800 Descending Chicago Center
Wed 07:43:44 PM 42.9472 -91.3947 103° East 457 526 31,000 -300 Descending Chicago Center
Wed 07:44:44 PM 42.9169 -91.2153 102° East 471 542 31,000 -50 Level Chicago Center
Wed 07:45:44 PM 42.8883 -91.0386 103° East 476 548 30,900 -500 Descending Chicago Center
Wed 07:46:44 PM 42.8594 -90.8622 103° East 476 548 30,000 -950 Descending Chicago Center
Wed 07:47:44 PM 42.8306 -90.6861 103° East 476 548 29,000 -1,000 Descending Chicago Center
Wed 07:48:44 PM 42.8011 -90.5072 103° East 476 548 28,000 -1,000 Descending Chicago Center
Wed 07:49:44 PM 42.7714 -90.3314 103° East 476 548 27,000 -950 Descending Chicago Center
Wed 07:50:44 PM 42.7417 -90.1583 102° East 470 541 26,100 -950 Descending Chicago Center
Wed 07:51:44 PM 42.7136 -89.9800 104° East 470 541 25,100 -1,200 Descending Chicago Center
Wed 07:52:44 PM 42.6831 -89.8158 104° East 465 535 23,700 -1,800 Descending Chicago Center
Wed 07:53:44 PM 42.6522 -89.6492 103° East 454 522 21,500 -2,200 Descending Chicago Center
Wed 07:54:44 PM 42.6256 -89.4881 103° East 443 510 19,300 -2,200 Descending Chicago Center
Wed 07:55:44 PM 42.5986 -89.3358 104° East 431 496 17,100 -2,100 Descending Chicago Center
Wed 07:56:44 PM 42.5714 -89.1836 108° East 426 490 15,100 -1,900 Descending Chicago Center
Wed 07:57:44 PM 42.5378 -89.0400 112° Southeast 405 466 13,300 -1,250 Descending Chicago Center
Wed 07:58:44 PM 42.4975 -88.9050 111° Southeast 389 448 12,600 -800 Descending Chicago Center
Wed 07:59:44 PM 42.4594 -88.7731 113° Southeast 384 442 11,700 -1,100 Descending Chicago Center
Wed 08:00:44 PM 42.4233 -88.6581 113° Southeast 347 399 10,400 -1,350 Descending Chicago Center
Wed 08:01:44 PM 42.3914 -88.5542 117° Southeast 309 356 9,000 -800 Descending Chicago Center
Wed 08:02:44 PM 42.3553 -88.4564 142° Southeast 291 335 8,800 -500 Descending Chicago Center
Wed 08:03:44 PM 42.2881 -88.3844 160° South 291 335 8,000 -400 Descending Chicago Center
Wed 08:04:44 PM 42.2169 -88.3489 172° South 293 337 8,000  Level Chicago Center
Wed 08:05:44 PM 42.1500 -88.3361 179° South 276 318 8,000 -50 Level Chicago Center
Wed 08:06:44 PM 42.0875 -88.3342 175° South 252 290 7,900 -600 Descending Chicago Center
Wed 08:07:44 PM 42.0269 -88.3269 123° Southeast 230 265 6,800 -975 Descending Chicago Center
Wed 08:10:07 PM 41.9667 -88.2000 90° East 183 211 4,600 -946 Descending Chicago TRACON
Wed 08:11:07 PM 41.9667 -88.1333 90° East 175 201 3,600 -950 Descending Chicago TRACON
Wed 08:12:07 PM 41.9667 -88.0667 90° East 172 198 2,700 -900 Descending Chicago TRACON
Wed 08:13:07 PM 41.9667 -88.0000 90° East 149 171 1,800 -800 Descending Chicago TRACON
Wed 08:14:07 PM 41.9667 -87.9500 90° East 128 147 1,100 -700 Descending Chicago TRACON

Login

Don't have an account? Register now (free) for customized features, flight alerts, and more!